Time;durP1;ratioP1;P1;durP2;ratioP2;P2;SDS_P1;SDS_P2;PMS_P1;PMS_P2;Temp;Humidity;BMP_temperature;BMP_pressure;BME280_temperature;BME280_humidity;BME280_pressure;Samples;Min_cycle;Max_cycle;Signal;HPM_P1;HPM_P2
2023/10/12 00:09:25;;;;;;;;;;;12.00;99.90;;;;;;20984257;28;19919;-78
2023/10/12 00:19:25;;;;;;;;;;;12.30;99.90;;;;;;20982112;28;19960;-78
2023/10/12 00:29:27;;;;;;;;;;;12.00;99.90;;;;;;20988713;28;20350;-78
2023/10/12 00:39:40;;;;;;;;;;;12.00;99.90;;;;;;20997016;28;19916;-78
2023/10/12 00:49:48;;;;;;;;;;;11.90;99.90;;;;;;20972100;28;19912;-78
2023/10/12 00:59:52;;;;;;;;;;;11.80;99.90;;;;;;20994456;28;20348;-78
2023/10/12 01:10:10;;;;;;;;;;;11.70;99.90;;;;;;20986364;28;19916;-77
2023/10/12 01:20:16;;;;;;;;;;;11.60;99.90;;;;;;20993139;28;19920;-77
2023/10/12 01:30:23;;;;;;;;;;;11.60;99.90;;;;;;20980690;28;19920;-78
2023/10/12 01:40:25;;;;;;;;;;;11.50;99.90;;;;;;20983523;28;20141;-77
2023/10/12 01:50:25;;;;;;;;;;;11.20;99.90;;;;;;20978336;28;19916;-78
2023/10/12 02:00:28;;;;;;;;;;;11.40;99.90;;;;;;20982920;28;19975;-78
2023/10/12 02:10:34;;;;;;;;;;;11.60;99.90;;;;;;20989898;28;19938;-78
2023/10/12 02:20:42;;;;;;;;;;;11.60;99.90;;;;;;20986448;28;19917;-78
2023/10/12 02:30:43;;;;;;;;;;;11.40;99.90;;;;;;20967583;28;19961;-78
2023/10/12 02:40:57;;;;;;;;;;;11.30;99.90;;;;;;20994344;28;20295;-77
2023/10/12 02:50:57;;;;;;;;;;;11.50;99.90;;;;;;20998209;28;19959;-77
2023/10/12 03:01:02;;;;;;;;;;;10.70;99.90;;;;;;21012841;28;20379;-77
2023/10/12 03:11:12;;;;;;;;;;;10.80;99.90;;;;;;20994071;28;19912;-77
2023/10/12 03:21:13;;;;;;;;;;;11.00;99.90;;;;;;20995954;28;20074;-77
2023/10/12 03:31:26;;;;;;;;;;;10.90;99.90;;;;;;20983491;28;19920;-77
2023/10/12 03:51:37;;;;;;;;;;;11.20;99.90;;;;;;20995083;28;19913;-77
2023/10/12 04:01:41;;;;;;;;;;;11.10;99.90;;;;;;20986556;28;19917;-77
2023/10/12 04:11:50;;;;;;;;;;;11.00;99.90;;;;;;20980063;28;19935;-77
2023/10/12 04:22:15;;;;;;;;;;;11.20;99.90;;;;;;20987217;28;19917;-78
2023/10/12 04:32:16;;;;;;;;;;;11.20;99.90;;;;;;20997521;28;19921;-78
2023/10/12 04:42:26;;;;;;;;;;;11.30;99.90;;;;;;21005937;28;19945;-79
2023/10/12 04:52:32;;;;;;;;;;;11.20;99.90;;;;;;21013806;28;19924;-78
2023/10/12 05:12:40;;;;;;;;;;;10.70;99.90;;;;;;21004427;28;19917;-78
2023/10/12 05:22:40;;;;;;;;;;;10.70;99.90;;;;;;20988215;28;20405;-77
2023/10/12 05:32:44;;;;;;;;;;;10.50;99.90;;;;;;20995650;28;19916;-78
2023/10/12 05:42:47;;;;;;;;;;;10.20;99.90;;;;;;20997192;28;19921;-78
2023/10/12 05:52:48;;;;;;;;;;;10.10;99.90;;;;;;21004223;28;19967;-78
2023/10/12 06:02:48;;;;;;;;;;;10.10;99.90;;;;;;21006901;28;20384;-78
2023/10/12 06:12:49;;;;;;;;;;;10.30;99.90;;;;;;20985766;28;19962;-81
2023/10/12 06:22:50;;;;;;;;;;;10.50;99.90;;;;;;20985781;28;19920;-81
2023/10/12 06:32:50;;;;;;;;;;;10.40;99.90;;;;;;20976268;28;19921;-80
2023/10/12 06:53:11;;;;;;;;;;;11.90;99.90;;;;;;21007937;28;20313;-78
2023/10/12 07:03:12;;;;;;;;;;;13.10;99.90;;;;;;21004045;28;19956;-78
2023/10/12 07:13:12;;;;;;;;;;;13.70;99.90;;;;;;21011032;28;19920;-82
2023/10/12 07:23:17;;;;;;;;;;;14.60;99.90;;;;;;20999216;28;19916;-82
2023/10/12 07:33:22;;;;;;;;;;;15.20;99.90;;;;;;21004230;28;20015;-81
2023/10/12 07:43:24;;;;;;;;;;;15.60;99.90;;;;;;21010756;28;19916;-79
2023/10/12 07:53:24;;;;;;;;;;;16.60;99.90;;;;;;21011490;28;19916;-79
2023/10/12 08:03:25;;;;;;;;;;;16.70;99.90;;;;;;20990307;28;20001;-81
2023/10/12 08:13:26;;;;;;;;;;;17.10;99.90;;;;;;20994426;28;19969;-80
2023/10/12 08:23:27;;;;;;;;;;;18.80;99.90;;;;;;21006108;28;19920;-80
2023/10/12 08:43:52;;;;;;;;;;;18.80;99.90;;;;;;21013038;28;20214;-80
2023/10/12 08:53:53;;;;;;;;;;;20.10;99.90;;;;;;21005800;28;19913;-78
2023/10/12 09:04:00;;;;;;;;;;;21.30;99.90;;;;;;21001328;28;20006;-77
2023/10/12 09:14:11;;;;;;;;;;;21.40;99.90;;;;;;20998151;28;19912;-80
2023/10/12 09:24:21;;;;;;;;;;;23.40;99.90;;;;;;20985470;28;20268;-80
2023/10/12 09:44:37;;;;;;;;;;;23.60;99.90;;;;;;20966985;28;20398;-79
2023/10/12 09:54:52;;;;;;;;;;;25.40;99.90;;;;;;20950284;28;19966;-81
2023/10/12 10:05:01;;;;;;;;;;;24.80;99.90;;;;;;20992256;28;19917;-84
2023/10/12 10:15:24;;;;;;;;;;;23.70;99.90;;;;;;20973394;28;19924;-83
2023/10/12 10:25:28;;;;;;;;;;;24.90;99.90;;;;;;21003250;28;20268;-82
2023/10/12 10:35:47;;;;;;;;;;;24.10;99.90;;;;;;21015789;28;19935;-84
2023/10/12 10:45:56;;;;;;;;;;;26.20;99.90;;;;;;21010130;28;19947;-83
2023/10/12 10:55:56;;;;;;;;;;;26.40;99.90;;;;;;20989438;28;20264;-81
2023/10/12 11:05:57;;;;;;;;;;;26.90;99.80;;;;;;21004663;28;19916;-81
2023/10/12 11:16:04;;;;;;;;;;;25.50;99.60;;;;;;20988941;28;20026;-84
2023/10/12 11:26:05;;;;;;;;;;;26.40;99.90;;;;;;20984780;28;20011;-83
2023/10/12 11:36:17;;;;;;;;;;;26.90;99.90;;;;;;20996135;28;19962;-81
2023/10/12 11:46:18;;;;;;;;;;;27.30;98.20;;;;;;20967767;28;19921;-82
2023/10/12 11:56:22;;;;;;;;;;;27.30;96.40;;;;;;20965795;28;19939;-81
2023/10/12 12:06:25;;;;;;;;;;;27.20;96.20;;;;;;20973288;28;19913;-81
2023/10/12 12:16:26;;;;;;;;;;;27.20;95.20;;;;;;20960057;28;20363;-81
2023/10/12 12:26:33;;;;;;;;;;;27.20;93.70;;;;;;20987858;28;19937;-81
2023/10/12 12:36:34;;;;;;;;;;;27.10;93.50;;;;;;21015301;28;20387;-83
2023/10/12 12:46:36;;;;;;;;;;;27.40;93.40;;;;;;20980228;28;20045;-83
2023/10/12 12:56:36;;;;;;;;;;;27.00;93.30;;;;;;20966658;28;19920;-83
2023/10/12 13:06:38;;;;;;;;;;;27.00;93.70;;;;;;20978819;28;19966;-82
2023/10/12 13:16:40;;;;;;;;;;;27.90;92.00;;;;;;20985579;28;19916;-81
2023/10/12 13:26:43;;;;;;;;;;;27.60;92.00;;;;;;20987591;28;19917;-81
2023/10/12 13:36:44;;;;;;;;;;;26.70;92.50;;;;;;21020784;28;19959;-83
2023/10/12 13:46:46;;;;;;;;;;;26.70;93.70;;;;;;20998910;28;20279;-81
2023/10/12 13:56:55;;;;;;;;;;;26.70;93.30;;;;;;21015089;28;19964;-80
2023/10/12 14:07:02;;;;;;;;;;;26.70;93.00;;;;;;20999027;28;19920;-81
2023/10/12 14:17:04;;;;;;;;;;;26.80;92.30;;;;;;20988746;28;20400;-81
2023/10/12 14:27:06;;;;;;;;;;;26.80;91.70;;;;;;20995212;28;20263;-80
2023/10/12 14:37:13;;;;;;;;;;;26.70;91.50;;;;;;20969099;28;20317;-83
2023/10/12 14:47:13;;;;;;;;;;;26.60;92.00;;;;;;20982812;28;19920;-83
2023/10/12 14:57:16;;;;;;;;;;;26.70;91.60;;;;;;21013585;28;20659;-87
2023/10/12 15:07:17;;;;;;;;;;;27.00;91.80;;;;;;20989996;28;19913;-80
2023/10/12 15:17:19;;;;;;;;;;;26.70;92.10;;;;;;20980370;28;19962;-82
2023/10/12 15:27:19;;;;;;;;;;;26.30;91.70;;;;;;20972872;28;20306;-81
2023/10/12 15:37:23;;;;;;;;;;;25.80;92.90;;;;;;20978645;28;19922;-82
2023/10/12 15:47:24;;;;;;;;;;;25.50;94.00;;;;;;21001869;28;20387;-82
2023/10/12 15:57:24;;;;;;;;;;;24.70;98.10;;;;;;20997554;28;19943;-82
2023/10/12 16:07:25;;;;;;;;;;;23.70;99.90;;;;;;20994106;28;19920;-80
2023/10/12 16:17:25;;;;;;;;;;;23.00;99.90;;;;;;20984323;28;21831;-79
2023/10/12 16:27:27;;;;;;;;;;;22.20;99.90;;;;;;20990698;28;19966;-80
2023/10/12 16:37:27;;;;;;;;;;;21.50;99.90;;;;;;20988961;28;19927;-80
2023/10/12 16:47:29;;;;;;;;;;;20.80;99.90;;;;;;20986073;28;19916;-81
2023/10/12 16:57:29;;;;;;;;;;;20.30;99.90;;;;;;20955736;28;19917;-80
2023/10/12 17:07:30;;;;;;;;;;;19.90;99.90;;;;;;20972789;28;19927;-78
2023/10/12 17:17:31;;;;;;;;;;;19.40;99.90;;;;;;20995425;28;19924;-80
2023/10/12 17:27:32;;;;;;;;;;;19.20;99.90;;;;;;20963145;28;19920;-80
2023/10/12 17:37:33;;;;;;;;;;;18.80;99.90;;;;;;20993427;28;19943;-81
2023/10/12 17:47:40;;;;;;;;;;;18.60;99.90;;;;;;20954787;28;19949;-81
2023/10/12 17:57:41;;;;;;;;;;;18.50;99.90;;;;;;20969579;28;19920;-78
2023/10/12 18:07:47;;;;;;;;;;;18.40;99.90;;;;;;20967112;28;19995;-79
2023/10/12 18:17:48;;;;;;;;;;;18.00;99.90;;;;;;20974663;28;19924;-79
2023/10/12 18:27:48;;;;;;;;;;;17.60;99.90;;;;;;20981487;28;20444;-80
2023/10/12 18:37:50;;;;;;;;;;;17.50;99.90;;;;;;20978832;28;19947;-80
2023/10/12 18:47:51;;;;;;;;;;;17.60;99.90;;;;;;20969692;28;20013;-79
2023/10/12 18:57:52;;;;;;;;;;;17.30;99.90;;;;;;20969742;28;19932;-78
2023/10/12 19:07:52;;;;;;;;;;;17.30;99.90;;;;;;20984457;28;20380;-78
2023/10/12 19:17:54;;;;;;;;;;;17.30;99.90;;;;;;20985035;28;19968;-80
2023/10/12 19:27:55;;;;;;;;;;;17.10;99.90;;;;;;21008306;28;19916;-81
2023/10/12 19:37:56;;;;;;;;;;;17.00;99.90;;;;;;21047422;28;19998;-80
2023/10/12 19:47:58;;;;;;;;;;;16.70;99.90;;;;;;21029236;28;19957;-77
2023/10/12 19:58:01;;;;;;;;;;;16.50;99.90;;;;;;21022873;28;20487;-81
2023/10/12 20:08:04;;;;;;;;;;;16.60;99.90;;;;;;21026650;28;19912;-79
2023/10/12 20:18:05;;;;;;;;;;;16.50;99.90;;;;;;21021710;28;20015;-79
2023/10/12 20:28:06;;;;;;;;;;;16.80;99.90;;;;;;21023059;28;19917;-78
2023/10/12 20:38:13;;;;;;;;;;;16.40;99.90;;;;;;21036270;28;19995;-80
2023/10/12 20:48:14;;;;;;;;;;;16.00;99.90;;;;;;21033790;28;19912;-79
2023/10/12 20:58:20;;;;;;;;;;;15.90;99.90;;;;;;21000365;28;19969;-78
2023/10/12 21:08:21;;;;;;;;;;;15.60;99.90;;;;;;21019507;28;19912;-76
2023/10/12 21:18:37;;;;;;;;;;;15.00;99.90;;;;;;21023761;28;19920;-79
2023/10/12 21:28:38;;;;;;;;;;;14.90;99.90;;;;;;21028288;28;19917;-79
2023/10/12 21:38:41;;;;;;;;;;;14.40;99.90;;;;;;20996218;28;19931;-78
2023/10/12 21:48:44;;;;;;;;;;;14.40;99.90;;;;;;21014745;28;20393;-77
2023/10/12 21:58:45;;;;;;;;;;;14.60;99.90;;;;;;20978380;28;19917;-77
2023/10/12 22:08:55;;;;;;;;;;;14.70;99.90;;;;;;21003756;28;19952;-79
2023/10/12 22:18:56;;;;;;;;;;;14.50;99.90;;;;;;21016846;28;20003;-80
2023/10/12 22:28:57;;;;;;;;;;;14.10;99.90;;;;;;21006325;28;19964;-81
2023/10/12 22:38:58;;;;;;;;;;;14.10;99.90;;;;;;21032261;28;19943;-78
2023/10/12 22:48:58;;;;;;;;;;;13.90;99.90;;;;;;21022972;28;19927;-79
2023/10/12 22:59:00;;;;;;;;;;;13.80;99.90;;;;;;21033803;28;19967;-82
2023/10/12 23:09:02;;;;;;;;;;;13.70;99.90;;;;;;21052246;28;20298;-80
2023/10/12 23:19:10;;;;;;;;;;;13.70;99.90;;;;;;21027897;28;19915;-78
2023/10/12 23:29:11;;;;;;;;;;;13.30;99.90;;;;;;21026650;28;19948;-81
2023/10/12 23:39:14;;;;;;;;;;;13.30;99.90;;;;;;21025320;28;20538;-79
2023/10/12 23:49:42;;;;;;;;;;;13.10;99.90;;;;;;21023112;28;20341;-78
2023/10/12 23:59:41;;;;;;;;;;;13.00;99.90;;;;;;21016125;28;19917;-81
